Time;durP1;ratioP1;P1;durP2;ratioP2;P2;SDS_P1;SDS_P2;PMS_P1;PMS_P2;Temp;Humidity;BMP_temperature;BMP_pressure;BME280_temperature;BME280_humidity;BME280_pressure;Samples;Min_cycle;Max_cycle;Signal;HPM_P1;HPM_P2
2023/10/12 00:02:21;;;;;;;0.10;0.10;;;15.30;99.90;;;;;;4958575;28;20196;-82
2023/10/12 00:04:53;;;;;;;0.10;0.10;;;15.30;99.90;;;;;;4960007;28;20727;-83
2023/10/12 00:07:33;;;;;;;0.10;0.10;;;15.40;99.90;;;;;;4958141;28;20561;-84
2023/10/12 00:12:47;;;;;;;0.10;0.10;;;14.90;99.90;;;;;;4961585;28;20185;-83
2023/10/12 00:17:51;;;;;;;0.10;0.10;;;14.80;99.90;;;;;;4961206;28;20192;-83
2023/10/12 00:20:32;;;;;;;0.10;0.10;;;14.70;99.90;;;;;;4960151;28;20172;-83
2023/10/12 00:23:01;;;;;;;0.10;0.10;;;14.70;99.90;;;;;;4959322;28;20275;-83
2023/10/12 00:25:26;;;;;;;0.10;0.10;;;14.80;99.90;;;;;;4960492;28;20206;-83
2023/10/12 00:27:52;;;;;;;0.10;0.10;;;14.90;99.90;;;;;;4958759;28;20608;-83
2023/10/12 00:30:18;;;;;;;0.10;0.10;;;14.90;99.90;;;;;;4959116;28;20212;-83
2023/10/12 00:32:44;;;;;;;0.10;0.10;;;14.70;99.90;;;;;;4959643;28;20193;-82
2023/10/12 00:35:14;;;;;;;0.10;0.10;;;14.70;99.90;;;;;;4958641;28;20201;-82
2023/10/12 00:37:41;;;;;;;0.10;0.10;;;14.60;99.90;;;;;;4959421;28;20184;-83
2023/10/12 00:43:14;;;;;;;0.10;0.10;;;14.70;99.90;;;;;;4963653;28;20225;-82
2023/10/12 00:45:40;;;;;;;0.10;0.10;;;14.70;99.90;;;;;;4959650;28;20200;-82
2023/10/12 00:48:08;;;;;;;0.10;0.10;;;14.70;99.90;;;;;;4957951;28;20191;-82
2023/10/12 00:50:36;;;;;;;0.10;0.10;;;14.80;99.90;;;;;;4957067;28;20215;-82
2023/10/12 00:53:14;;;;;;;0.10;0.10;;;14.90;99.90;;;;;;4959778;28;20280;-83
2023/10/12 00:55:41;;;;;;;0.10;0.10;;;14.90;99.90;;;;;;4975362;28;20616;-83
2023/10/12 00:58:10;;;;;;;0.10;0.10;;;15.00;99.90;;;;;;4959048;28;20633;-83
2023/10/12 01:00:45;;;;;;;0.10;0.10;;;14.80;99.90;;;;;;4959637;28;20193;-83
2023/10/12 01:08:33;;;;;;;0.10;0.10;;;14.90;99.90;;;;;;4958386;28;20835;-82
2023/10/12 01:11:04;;;;;;;0.10;0.10;;;14.90;99.90;;;;;;4958160;28;20255;-83
2023/10/12 01:13:33;;;;;;;0.10;0.10;;;15.00;99.90;;;;;;4959269;28;20170;-83
2023/10/12 01:16:08;;;;;;;0.10;0.10;;;14.90;99.90;;;;;;4959457;28;20193;-83
2023/10/12 01:18:34;;;;;;;0.10;0.10;;;14.70;99.90;;;;;;4973906;28;20611;-82
2023/10/12 01:21:03;;;;;;;0.10;0.10;;;14.50;99.90;;;;;;4960831;28;20211;-83
2023/10/12 01:23:30;;;;;;;0.10;0.10;;;14.50;99.90;;;;;;4958395;28;20182;-83
2023/10/12 01:26:09;;;;;;;0.10;0.10;;;14.60;99.90;;;;;;4959824;28;20277;-83
2023/10/12 01:28:35;;;;;;;0.10;0.10;;;14.60;99.90;;;;;;4956641;28;20194;-83
2023/10/12 01:31:03;;;;;;;0.10;0.10;;;14.80;99.90;;;;;;4958311;28;20692;-80
2023/10/12 01:33:28;;;;;;;0.10;0.10;;;14.80;99.90;;;;;;4960838;28;20723;-80
2023/10/12 01:35:56;;;;;;;0.10;0.10;;;14.80;99.90;;;;;;4974381;28;20183;-81
2023/10/12 01:38:22;;;;;;;0.10;0.10;;;14.80;99.90;;;;;;4962129;28;20249;-80
2023/10/12 01:43:17;;;;;;;0.10;0.10;;;14.80;99.90;;;;;;4964024;28;20180;-80
2023/10/12 01:45:44;;;;;;;0.10;0.10;;;14.90;99.90;;;;;;4962438;28;20204;-80
2023/10/12 01:48:16;;;;;;;0.10;0.10;;;14.90;99.90;;;;;;4961371;28;20188;-80
2023/10/12 01:50:43;;;;;;;0.10;0.10;;;14.90;99.90;;;;;;4963843;28;20200;-80
2023/10/12 01:55:54;;;;;;;0.10;0.10;;;14.80;99.90;;;;;;4962919;28;20601;-81
2023/10/12 01:58:27;;;;;;;0.10;0.10;;;14.80;99.90;;;;;;4962891;28;20194;-80
2023/10/12 02:00:53;;;;;;;0.10;0.10;;;14.70;99.90;;;;;;4960672;28;20199;-80
2023/10/12 02:03:26;;;;;;;0.10;0.10;;;14.70;99.90;;;;;;4960659;28;20205;-80
2023/10/12 02:05:58;;;;;;;0.10;0.10;;;14.70;99.90;;;;;;4965168;28;20224;-81
2023/10/12 02:08:32;;;;;;;0.10;0.10;;;14.80;99.90;;;;;;4981464;28;20201;-80
2023/10/12 02:13:36;;;;;;;0.10;0.10;;;15.10;99.90;;;;;;4985494;28;20647;-80
2023/10/12 02:16:03;;;;;;;0.10;0.10;;;15.20;99.90;;;;;;4983929;28;20161;-80
2023/10/12 02:18:30;;;;;;;0.10;0.10;;;15.30;99.90;;;;;;4986397;28;20196;-81
2023/10/12 02:23:36;;;;;;;0.10;0.10;;;15.40;99.90;;;;;;4969813;28;20195;-80
2023/10/12 02:28:53;;;;;;;0.10;0.10;;;15.20;99.90;;;;;;4969229;28;20258;-82
2023/10/12 02:31:20;;;;;;;0.10;0.10;;;15.20;99.90;;;;;;4966714;28;20212;-82
2023/10/12 02:33:46;;;;;;;0.10;0.10;;;15.30;99.90;;;;;;4965840;28;20193;-82
2023/10/12 02:36:13;;;;;;;0.10;0.10;;;15.30;99.90;;;;;;4962571;28;20664;-83
2023/10/12 02:38:41;;;;;;;0.10;0.10;;;15.20;99.90;;;;;;4961942;28;21147;-83
2023/10/12 02:41:12;;;;;;;0.10;0.10;;;15.30;99.90;;;;;;4962413;28;20193;-82
2023/10/12 02:43:49;;;;;;;0.10;0.10;;;15.40;99.90;;;;;;4962007;28;20185;-82
2023/10/12 02:46:22;;;;;;;0.10;0.10;;;15.30;99.90;;;;;;4964296;28;20194;-82
2023/10/12 02:48:50;;;;;;;0.10;0.10;;;15.30;99.90;;;;;;4962415;28;20185;-82
2023/10/12 02:51:17;;;;;;;0.10;0.10;;;14.90;99.90;;;;;;4978592;28;20251;-82
2023/10/12 02:53:44;;;;;;;0.10;0.10;;;15.00;99.90;;;;;;4963313;28;20588;-82
2023/10/12 02:56:10;;;;;;;0.10;0.10;;;15.10;99.90;;;;;;4959540;28;20270;-82
2023/10/12 02:58:35;;;;;;;0.10;0.10;;;15.20;99.90;;;;;;4962258;28;20275;-82
2023/10/12 03:01:14;;;;;;;0.10;0.10;;;15.20;99.90;;;;;;4961337;28;20196;-84
2023/10/12 03:03:49;;;;;;;0.10;0.10;;;15.30;99.90;;;;;;4961428;28;20625;-83
2023/10/12 03:06:22;;;;;;;0.10;0.10;;;15.40;99.90;;;;;;4976720;28;20604;-83
2023/10/12 03:09:14;;;;;;;0.10;0.10;;;15.50;99.90;;;;;;4966896;28;20199;-83
2023/10/12 03:11:42;;;;;;;0.10;0.10;;;15.50;99.90;;;;;;4961218;28;20214;-81
2023/10/12 03:14:15;;;;;;;0.10;0.10;;;15.30;99.90;;;;;;4961584;28;20205;-82
2023/10/12 03:16:42;;;;;;;0.10;0.10;;;15.20;99.90;;;;;;4959128;28;20189;-82
2023/10/12 03:19:22;;;;;;;0.10;0.10;;;15.20;99.90;;;;;;4961216;28;20544;-82
2023/10/12 03:21:52;;;;;;;0.10;0.10;;;15.40;99.90;;;;;;4961393;28;20183;-82
2023/10/12 03:24:38;;;;;;;0.10;0.10;;;15.50;99.90;;;;;;4959170;28;20201;-82
2023/10/12 03:29:29;;;;;;;0.10;0.10;;;15.80;99.90;;;;;;4963108;28;20657;-82
2023/10/12 03:31:57;;;;;;;0.10;0.10;;;15.90;99.90;;;;;;4960559;28;20591;-81
2023/10/12 03:34:36;;;;;;;0.10;0.10;;;16.00;99.90;;;;;;4963609;28;20223;-82
2023/10/12 03:37:04;;;;;;;0.10;0.10;;;16.00;99.90;;;;;;4963285;28;20660;-81
2023/10/12 03:39:58;;;;;;;0.00;0.00;;;16.10;99.90;;;;;;4959328;28;20186;-82
2023/10/12 03:44:54;;;;;;;0.10;0.10;;;16.10;99.90;;;;;;4963335;28;20208;-82
2023/10/12 03:52:16;;;;;;;0.10;0.10;;;16.30;99.90;;;;;;4961126;28;20233;-82
2023/10/12 03:57:38;;;;;;;0.10;0.10;;;16.20;99.90;;;;;;4960517;28;20185;-82
2023/10/12 04:02:45;;;;;;;0.10;0.10;;;16.00;99.90;;;;;;4961895;28;20307;-82
2023/10/12 04:08:16;;;;;;;0.10;0.10;;;16.10;99.90;;;;;;4962331;28;20219;-82
2023/10/12 04:18:42;;;;;;;0.10;0.10;;;16.40;99.90;;;;;;4960137;28;20180;-82
2023/10/12 04:21:15;;;;;;;0.10;0.10;;;16.50;99.90;;;;;;4958815;28;20188;-82
2023/10/12 04:23:48;;;;;;;0.10;0.10;;;16.60;99.90;;;;;;4961002;28;20772;-82
2023/10/12 04:28:53;;;;;;;0.10;0.10;;;16.70;99.90;;;;;;4955882;28;20188;-82
2023/10/12 04:31:32;;;;;;;0.10;0.10;;;16.60;99.90;;;;;;4959119;28;20196;-82
2023/10/12 04:34:08;;;;;;;0.10;0.10;;;16.50;99.90;;;;;;4975103;28;20219;-83
2023/10/12 04:36:45;;;;;;;0.10;0.10;;;16.60;99.90;;;;;;4959608;28;20188;-82
2023/10/12 04:47:04;;;;;;;0.10;0.10;;;16.90;99.90;;;;;;4961733;28;21039;-82
2023/10/12 04:52:16;;;;;;;0.10;0.10;;;17.00;99.90;;;;;;4960103;28;20207;-82
2023/10/12 04:57:26;;;;;;;0.10;0.10;;;17.00;99.90;;;;;;4962061;28;20263;-83
2023/10/12 05:00:06;;;;;;;0.10;0.10;;;17.10;99.90;;;;;;4960240;28;20217;-82
2023/10/12 05:07:59;;;;;;;0.10;0.10;;;17.10;99.90;;;;;;4961331;28;20514;-82
2023/10/12 05:13:04;;;;;;;0.10;0.10;;;17.10;99.90;;;;;;4966519;28;20302;-84
2023/10/12 05:15:42;;;;;;;0.10;0.10;;;17.10;99.90;;;;;;4964218;28;20754;-83
2023/10/12 05:18:10;;;;;;;0.10;0.10;;;17.10;99.90;;;;;;4964974;28;20185;-82
2023/10/12 05:20:36;;;;;;;0.10;0.10;;;17.10;99.90;;;;;;4980682;28;20185;-82
2023/10/12 05:23:03;;;;;;;0.10;0.10;;;17.10;99.90;;;;;;4965684;28;20220;-82
2023/10/12 05:28:15;;;;;;;0.10;0.10;;;17.00;99.90;;;;;;4966366;28;20196;-82
2023/10/12 05:30:48;;;;;;;0.10;0.10;;;17.10;99.90;;;;;;4964970;28;20295;-82
2023/10/12 05:36:14;;;;;;;0.10;0.10;;;17.00;99.90;;;;;;4968921;28;20191;-82
2023/10/12 05:39:08;;;;;;;0.10;0.10;;;17.00;99.90;;;;;;4966684;28;20207;-82
2023/10/12 05:43:59;;;;;;;0.10;0.10;;;16.70;99.90;;;;;;4964321;28;20208;-84
2023/10/12 05:46:32;;;;;;;0.10;0.10;;;16.70;99.90;;;;;;4963334;28;20188;-83
2023/10/12 05:48:58;;;;;;;0.10;0.10;;;16.50;99.90;;;;;;4962050;28;20196;-83
2023/10/12 05:51:23;;;;;;;0.10;0.10;;;16.30;99.90;;;;;;4961852;28;20231;-83
2023/10/12 05:53:53;;;;;;;0.10;0.10;;;16.30;99.90;;;;;;4962318;28;20188;-83
2023/10/12 05:56:29;;;;;;;0.77;0.77;;;16.20;99.90;;;;;;4963496;28;20312;-83
2023/10/12 05:58:55;;;;;;;0.10;0.10;;;16.10;99.90;;;;;;4961141;28;20222;-82
2023/10/12 06:01:34;;;;;;;0.10;0.10;;;16.20;99.90;;;;;;4963154;28;20189;-82
2023/10/12 06:04:05;;;;;;;0.10;0.10;;;16.20;99.90;;;;;;4959953;28;20678;-83
2023/10/12 06:06:35;;;;;;;0.10;0.10;;;16.30;99.90;;;;;;4963201;28;20235;-83
2023/10/12 06:09:04;;;;;;;0.10;0.10;;;16.40;99.90;;;;;;4962697;28;20169;-83
2023/10/12 06:11:30;;;;;;;0.10;0.10;;;16.30;99.90;;;;;;4962313;28;20201;-83
2023/10/12 06:13:59;;;;;;;0.10;0.10;;;16.30;99.90;;;;;;4961125;28;20315;-83
2023/10/12 06:16:25;;;;;;;0.10;0.10;;;16.40;99.90;;;;;;4962953;28;20267;-83
2023/10/12 06:18:53;;;;;;;0.10;0.10;;;16.50;99.90;;;;;;4961901;28;20569;-83
2023/10/12 06:21:19;;;;;;;0.10;0.10;;;16.30;99.90;;;;;;4960187;28;20276;-83
2023/10/12 06:23:49;;;;;;;0.10;0.10;;;16.20;99.90;;;;;;4975917;28;20271;-83
2023/10/12 06:26:31;;;;;;;0.10;0.10;;;16.30;99.90;;;;;;4960811;28;20683;-82
2023/10/12 06:28:59;;;;;;;0.10;0.10;;;16.40;99.90;;;;;;4960030;28;20303;-82
2023/10/12 06:31:29;;;;;;;0.10;0.10;;;16.50;99.90;;;;;;4962485;28;20250;-81
2023/10/12 06:33:55;;;;;;;0.10;0.10;;;16.60;99.90;;;;;;4961009;28;20209;-82
2023/10/12 06:36:37;;;;;;;0.10;0.10;;;16.60;99.90;;;;;;4970124;28;20555;-82
2023/10/12 06:46:48;;;;;;;0.10;0.10;;;16.90;99.90;;;;;;4973972;28;20180;-82
2023/10/12 06:49:18;;;;;;;0.10;0.10;;;16.80;99.90;;;;;;4989195;28;20224;-82
2023/10/12 06:51:53;;;;;;;0.10;0.10;;;16.60;99.90;;;;;;4966972;28;20235;-82
2023/10/12 06:57:29;;;;;;;0.10;0.10;;;16.70;99.90;;;;;;4962860;28;20181;-80
2023/10/12 07:00:59;;;;;;;0.10;0.10;;;16.60;99.90;;;;;;4962464;28;20260;-82
2023/10/12 07:02:42;;;;;;;0.10;0.10;;;16.60;99.90;;;;;;4965695;28;20250;-82
2023/10/12 07:05:08;;;;;;;0.10;0.10;;;16.60;99.90;;;;;;4966230;28;20207;-82
2023/10/12 07:07:41;;;;;;;0.10;0.10;;;16.60;99.90;;;;;;4965209;28;20197;-82
2023/10/12 07:12:47;;;;;;;0.10;0.10;;;16.80;99.90;;;;;;4966791;28;20212;-82
2023/10/12 07:15:26;;;;;;;0.10;0.10;;;16.90;99.90;;;;;;4962438;28;22269;-82
2023/10/12 07:17:52;;;;;;;0.10;0.10;;;17.00;99.90;;;;;;4962986;28;20175;-82
2023/10/12 07:22:59;;;;;;;0.10;0.10;;;17.00;99.90;;;;;;4965511;28;20169;-82
2023/10/12 07:25:26;;;;;;;0.10;0.10;;;16.90;99.90;;;;;;4966167;28;20423;-82
2023/10/12 07:27:58;;;;;;;0.10;0.10;;;17.00;99.90;;;;;;4964874;28;20184;-82
2023/10/12 07:30:30;;;;;;;0.10;0.10;;;17.10;99.90;;;;;;4964296;28;20189;-82
2023/10/12 07:33:04;;;;;;;0.10;0.10;;;17.20;99.90;;;;;;4964544;28;20177;-82
2023/10/12 07:35:34;;;;;;;0.10;0.10;;;17.30;99.90;;;;;;4962690;28;20196;-82
2023/10/12 07:38:01;;;;;;;0.10;0.10;;;17.30;99.90;;;;;;4964913;28;20213;-82
2023/10/12 07:40:34;;;;;;;0.10;0.10;;;17.40;99.90;;;;;;4964267;28;20195;-82
2023/10/12 07:43:04;;;;;;;0.10;0.10;;;17.10;99.90;;;;;;4962218;28;20181;-82
2023/10/12 07:45:38;;;;;;;0.10;0.10;;;16.90;99.90;;;;;;4962619;28;20200;-79
2023/10/12 07:48:06;;;;;;;0.10;0.10;;;17.10;99.90;;;;;;4962789;28;20537;-82
2023/10/12 07:50:37;;;;;;;0.10;0.10;;;17.30;99.90;;;;;;4961797;28;20703;-82
2023/10/12 07:53:08;;;;;;;0.10;0.10;;;17.30;99.90;;;;;;4962166;28;20176;-82
2023/10/12 07:55:41;;;;;;;0.10;0.10;;;17.30;99.90;;;;;;4961543;28;20260;-82
2023/10/12 07:58:12;;;;;;;0.10;0.10;;;17.50;99.90;;;;;;4963714;28;20204;-80
2023/10/12 08:00:41;;;;;;;0.10;0.10;;;17.40;99.90;;;;;;4963718;28;20188;-80
2023/10/12 08:03:18;;;;;;;0.10;0.10;;;17.10;99.90;;;;;;4960325;28;20248;-82
2023/10/12 08:05:56;;;;;;;0.10;0.10;;;17.30;99.90;;;;;;4959722;28;20208;-81
2023/10/12 08:08:33;;;;;;;0.10;0.10;;;17.20;99.90;;;;;;4960452;28;20205;-80
2023/10/12 08:11:00;;;;;;;0.10;0.10;;;17.20;99.90;;;;;;4959455;28;20240;-81
2023/10/12 08:13:26;;;;;;;0.10;0.10;;;17.40;99.90;;;;;;4959948;28;20648;-81
2023/10/12 08:15:58;;;;;;;0.10;0.10;;;17.30;99.90;;;;;;4959593;28;20240;-81
2023/10/12 08:21:32;;;;;;;0.10;0.10;;;17.20;99.90;;;;;;4960616;28;20224;-81
2023/10/12 08:24:23;;;;;;;0.10;0.10;;;17.30;99.90;;;;;;4951967;28;20236;-80
2023/10/12 08:26:48;;;;;;;0.10;0.10;;;17.20;99.90;;;;;;4960150;28;20200;-80
2023/10/12 08:32:04;;;;;;;0.10;0.10;;;17.40;99.90;;;;;;4955105;28;20682;-81
2023/10/12 08:39:38;;;;;;;0.10;0.10;;;17.30;99.90;;;;;;4953738;28;20186;-82
2023/10/12 08:44:47;;;;;;;0.10;0.10;;;17.00;99.90;;;;;;4966089;28;20215;-82
2023/10/12 08:47:24;;;;;;;0.10;0.10;;;17.10;99.90;;;;;;4978094;28;20193;-82
2023/10/12 08:49:53;;;;;;;0.10;0.10;;;16.90;99.90;;;;;;4963512;28;20188;-82
2023/10/12 08:52:28;;;;;;;0.10;0.10;;;17.00;99.90;;;;;;4966330;28;20665;-82
2023/10/12 08:55:11;;;;;;;0.10;0.10;;;17.20;99.90;;;;;;4963923;28;20622;-81
2023/10/12 08:58:01;;;;;;;0.10;0.10;;;17.30;99.90;;;;;;4963442;28;20280;-82
2023/10/12 09:03:24;;;;;;;0.10;0.10;;;17.50;99.90;;;;;;4966110;28;20205;-82
2023/10/12 09:05:54;;;;;;;0.10;0.10;;;17.50;99.90;;;;;;4968402;28;20308;-81
2023/10/12 09:11:02;;;;;;;0.10;0.10;;;17.50;99.90;;;;;;4964665;28;20215;-81
2023/10/12 09:13:33;;;;;;;0.10;0.10;;;17.30;99.90;;;;;;4966979;28;20176;-82
2023/10/12 09:16:03;;;;;;;0.10;0.10;;;17.50;99.90;;;;;;4964525;28;20791;-81
2023/10/12 09:18:33;;;;;;;0.10;0.10;;;17.50;99.90;;;;;;4961979;28;20312;-82
2023/10/12 09:23:45;;;;;;;0.10;0.10;;;17.70;99.90;;;;;;4963816;28;20279;-81
2023/10/12 09:26:15;;;;;;;0.10;0.10;;;17.80;99.90;;;;;;4959887;28;20192;-81
2023/10/12 09:31:15;;;;;;;0.10;0.10;;;17.80;99.90;;;;;;4961117;28;20209;-81
2023/10/12 09:33:44;;;;;;;0.10;0.10;;;17.80;99.90;;;;;;4961984;28;20272;-81
2023/10/12 09:36:10;;;;;;;0.10;0.10;;;17.70;99.90;;;;;;4961930;28;20595;-81
2023/10/12 09:38:38;;;;;;;0.10;0.10;;;17.60;99.90;;;;;;4962109;28;20294;-81
2023/10/12 09:41:08;;;;;;;0.10;0.10;;;17.70;99.90;;;;;;4962157;28;20275;-81
2023/10/12 09:43:40;;;;;;;0.10;0.10;;;17.80;99.90;;;;;;4962860;28;20178;-82
2023/10/12 09:46:09;;;;;;;0.10;0.10;;;18.00;99.90;;;;;;4959497;28;20555;-82
2023/10/12 09:48:39;;;;;;;0.10;0.10;;;17.90;99.90;;;;;;4962125;28;20562;-81
2023/10/12 09:51:18;;;;;;;0.10;0.10;;;17.90;99.90;;;;;;4959735;28;20256;-81
2023/10/12 09:53:59;;;;;;;0.10;0.10;;;18.00;99.90;;;;;;4962425;28;20189;-81
2023/10/12 09:56:45;;;;;;;0.10;0.10;;;18.10;99.90;;;;;;4961235;28;20187;-81
2023/10/12 09:59:18;;;;;;;0.10;0.10;;;18.20;99.90;;;;;;4961331;28;20180;-81
2023/10/12 10:01:50;;;;;;;0.10;0.10;;;18.20;99.90;;;;;;4959133;28;20740;-82
2023/10/12 10:09:46;;;;;;;0.10;0.10;;;18.40;99.90;;;;;;4961851;28;20206;-82
2023/10/12 10:12:17;;;;;;;0.10;0.10;;;18.40;99.90;;;;;;4957888;28;20242;-82
2023/10/12 10:14:45;;;;;;;0.10;0.10;;;18.40;99.90;;;;;;4959728;28;20559;-81
2023/10/12 10:17:15;;;;;;;0.10;0.10;;;18.40;99.90;;;;;;4958563;28;20307;-82
2023/10/12 10:19:44;;;;;;;0.10;0.10;;;18.50;99.90;;;;;;4959525;28;20183;-81
2023/10/12 10:22:14;;;;;;;0.10;0.10;;;18.50;99.90;;;;;;4960516;28;20236;-82
2023/10/12 10:24:43;;;;;;;0.10;0.10;;;18.50;99.90;;;;;;4961508;28;20561;-82
2023/10/12 10:27:17;;;;;;;0.10;0.10;;;18.50;99.90;;;;;;4963441;28;20203;-82
2023/10/12 10:29:56;;;;;;;0.10;0.10;;;18.40;99.90;;;;;;4962133;28;20224;-82
2023/10/12 10:32:36;;;;;;;0.10;0.10;;;18.50;99.90;;;;;;4960303;28;20204;-82
2023/10/12 10:35:08;;;;;;;0.10;0.10;;;18.50;99.90;;;;;;4961979;28;20720;-82
2023/10/12 10:37:57;;;;;;;0.10;0.10;;;18.50;99.90;;;;;;4961206;28;20187;-82
2023/10/12 10:40:39;;;;;;;0.10;0.10;;;18.50;99.90;;;;;;4974891;28;20185;-82
2023/10/12 10:43:09;;;;;;;0.10;0.10;;;18.40;99.90;;;;;;4960520;28;20281;-82
2023/10/12 10:45:37;;;;;;;0.10;0.10;;;18.40;99.90;;;;;;4958768;28;20446;-82
2023/10/12 10:48:04;;;;;;;0.10;0.10;;;18.40;99.90;;;;;;4978601;28;20200;-82
2023/10/12 10:50:33;;;;;;;0.10;0.10;;;18.30;99.90;;;;;;4960300;28;20175;-82
2023/10/12 10:52:59;;;;;;;0.10;0.10;;;18.40;99.90;;;;;;4962448;28;20194;-82
2023/10/12 10:55:30;;;;;;;0.10;0.10;;;18.40;99.90;;;;;;4961132;28;20222;-82
2023/10/12 10:57:57;;;;;;;0.10;0.10;;;18.30;99.90;;;;;;4960389;28;20179;-83
2023/10/12 11:00:33;;;;;;;0.10;0.10;;;18.30;99.90;;;;;;4961461;28;20263;-82
2023/10/12 11:03:03;;;;;;;0.10;0.10;;;18.40;99.90;;;;;;4958881;28;20207;-82
2023/10/12 11:05:29;;;;;;;0.10;0.10;;;18.40;99.90;;;;;;4958205;28;20218;-82
2023/10/12 11:08:05;;;;;;;0.10;0.10;;;18.30;99.90;;;;;;4959960;28;20189;-82
2023/10/12 11:10:31;;;;;;;0.10;0.10;;;18.20;99.90;;;;;;4959824;28;20191;-82
2023/10/12 11:13:00;;;;;;;0.10;0.10;;;18.20;99.90;;;;;;4961234;28;20207;-82
2023/10/12 11:15:26;;;;;;;0.10;0.10;;;18.20;99.90;;;;;;4959615;28;20196;-82
2023/10/12 11:18:07;;;;;;;0.10;0.10;;;18.20;99.90;;;;;;4958948;28;20723;-82
2023/10/12 11:20:40;;;;;;;0.10;0.10;;;18.30;99.90;;;;;;4959962;28;20176;-82
2023/10/12 11:23:09;;;;;;;0.10;0.10;;;18.40;99.90;;;;;;4956537;28;20667;-81
2023/10/12 11:25:42;;;;;;;0.10;0.10;;;18.40;99.90;;;;;;4959662;28;21203;-82
2023/10/12 11:28:19;;;;;;;0.10;0.10;;;18.50;99.90;;;;;;4959367;28;20271;-82
2023/10/12 11:30:45;;;;;;;0.10;0.10;;;18.50;99.90;;;;;;4962332;28;20275;-82
2023/10/12 11:33:11;;;;;;;0.10;0.10;;;18.40;99.90;;;;;;4957893;28;20268;-81
2023/10/12 11:35:41;;;;;;;0.10;0.10;;;18.20;99.90;;;;;;4956939;28;20576;-82
2023/10/12 11:38:18;;;;;;;0.10;0.10;;;18.20;99.90;;;;;;4958602;28;20755;-83
2023/10/12 11:40:52;;;;;;;0.10;0.10;;;17.80;99.90;;;;;;4957483;28;20193;-82
2023/10/12 11:43:21;;;;;;;0.10;0.10;;;18.00;99.90;;;;;;4957527;28;20184;-82
2023/10/12 11:46:03;;;;;;;0.10;0.10;;;17.70;99.90;;;;;;4957945;28;21237;-82
2023/10/12 11:48:30;;;;;;;0.10;0.10;;;17.80;99.90;;;;;;4960401;28;20279;-82
2023/10/12 11:50:56;;;;;;;0.10;0.10;;;18.00;99.90;;;;;;4959430;28;20307;-82
2023/10/12 11:53:24;;;;;;;0.10;0.10;;;18.30;99.90;;;;;;4957932;28;20200;-82
2023/10/12 11:56:02;;;;;;;0.10;0.10;;;18.50;99.90;;;;;;4957680;28;20207;-82
2023/10/12 11:58:27;;;;;;;0.10;0.10;;;18.70;99.90;;;;;;4960417;28;20180;-82
2023/10/12 12:00:53;;;;;;;0.10;0.10;;;18.80;99.90;;;;;;4959178;28;20180;-82
2023/10/12 12:03:18;;;;;;;0.10;0.10;;;18.90;99.90;;;;;;4956763;28;20297;-82
2023/10/12 12:05:50;;;;;;;0.10;0.10;;;18.90;99.90;;;;;;4958054;28;20725;-82
2023/10/12 12:08:18;;;;;;;0.10;0.10;;;19.00;99.90;;;;;;4957023;28;20181;-82
2023/10/12 12:10:45;;;;;;;0.10;0.10;;;19.10;99.90;;;;;;4957025;28;20181;-82
2023/10/12 12:13:12;;;;;;;0.10;0.10;;;19.10;99.90;;;;;;4959076;28;20632;-82
2023/10/12 12:15:44;;;;;;;0.07;0.07;;;19.10;99.90;;;;;;4957220;28;20218;-82
2023/10/12 12:18:17;;;;;;;0.10;0.10;;;19.20;99.90;;;;;;4956999;28;20547;-82
2023/10/12 12:20:44;;;;;;;0.10;0.10;;;19.20;99.90;;;;;;4959847;28;20182;-82
2023/10/12 12:23:10;;;;;;;0.10;0.10;;;19.30;99.90;;;;;;4957938;28;20193;-82
2023/10/12 12:25:39;;;;;;;0.10;0.10;;;19.30;99.90;;;;;;4969422;28;20201;-83
2023/10/12 12:28:07;;;;;;;0.10;0.10;;;19.30;99.90;;;;;;4958462;28;20215;-82
2023/10/12 12:30:45;;;;;;;0.10;0.10;;;19.40;99.90;;;;;;4957325;28;20236;-83
2023/10/12 12:33:15;;;;;;;0.10;0.10;;;19.40;99.90;;;;;;4957340;28;20192;-82
2023/10/12 12:35:41;;;;;;;0.10;0.10;;;19.40;99.90;;;;;;4954926;28;20281;-82
2023/10/12 12:38:22;;;;;;;0.10;0.10;;;19.40;99.90;;;;;;4972252;28;20231;-82
2023/10/12 12:40:47;;;;;;;0.10;0.10;;;19.40;99.90;;;;;;4957885;28;21036;-82
2023/10/12 12:43:13;;;;;;;0.10;0.10;;;19.30;99.90;;;;;;4955675;28;20195;-80
2023/10/12 12:45:38;;;;;;;0.10;0.10;;;19.20;99.90;;;;;;4956438;28;20360;-81
2023/10/12 12:48:04;;;;;;;0.10;0.10;;;19.10;99.90;;;;;;4958203;28;20192;-80
2023/10/12 12:50:30;;;;;;;0.10;0.10;;;19.00;99.90;;;;;;4958485;28;20226;-83
2023/10/12 12:52:57;;;;;;;0.10;0.10;;;19.20;99.90;;;;;;4953030;28;20200;-82
2023/10/12 12:55:27;;;;;;;0.10;0.10;;;19.10;99.90;;;;;;4957867;28;20216;-82
2023/10/12 12:57:55;;;;;;;0.10;0.10;;;19.40;99.90;;;;;;4958715;28;20183;-82
2023/10/12 13:00:21;;;;;;;0.10;0.10;;;19.70;99.90;;;;;;4957303;28;20186;-82
2023/10/12 13:02:48;;;;;;;0.10;0.10;;;19.70;99.90;;;;;;4957546;28;20577;-81
2023/10/12 13:05:14;;;;;;;0.20;0.20;;;19.80;99.90;;;;;;4957748;28;20221;-81
2023/10/12 13:07:40;;;;;;;0.10;0.10;;;19.70;99.90;;;;;;4953519;28;20201;-83
2023/10/12 13:10:07;;;;;;;0.10;0.10;;;19.80;99.90;;;;;;4958426;28;20184;-82
2023/10/12 13:12:33;;;;;;;0.10;0.10;;;19.90;99.90;;;;;;4956672;28;20238;-82
2023/10/12 13:15:01;;;;;;;0.10;0.10;;;19.80;99.90;;;;;;4958794;28;20212;-82
2023/10/12 13:17:30;;;;;;;0.10;0.10;;;19.60;99.90;;;;;;4956389;28;20180;-83
2023/10/12 13:19:58;;;;;;;0.10;0.10;;;19.40;99.90;;;;;;4958396;28;20260;-83
2023/10/12 13:22:25;;;;;;;0.23;0.23;;;19.30;99.90;;;;;;4957923;28;20292;-83
2023/10/12 13:24:54;;;;;;;0.10;0.10;;;19.20;99.90;;;;;;4957987;28;20212;-81
2023/10/12 13:27:22;;;;;;;0.10;0.10;;;19.00;99.90;;;;;;4953522;28;20678;-82
2023/10/12 13:29:49;;;;;;;0.10;0.10;;;18.90;99.90;;;;;;4958000;28;20184;-81
2023/10/12 13:32:17;;;;;;;0.10;0.10;;;18.80;99.90;;;;;;4976990;28;20663;-81
2023/10/12 13:34:43;;;;;;;0.10;0.10;;;18.80;99.90;;;;;;4977785;28;20209;-81
2023/10/12 13:37:08;;;;;;;0.10;0.10;;;18.60;99.90;;;;;;4971605;28;20196;-80
2023/10/12 13:39:34;;;;;;;0.10;0.10;;;18.50;99.90;;;;;;4967952;28;20224;-80
2023/10/12 13:42:00;;;;;;;0.10;0.10;;;18.60;99.90;;;;;;4970588;28;20200;-80
2023/10/12 13:44:25;;;;;;;0.10;0.10;;;18.60;99.90;;;;;;4960774;28;20236;-80
2023/10/12 13:46:51;;;;;;;0.10;0.10;;;18.60;99.90;;;;;;4973867;28;20195;-80
2023/10/12 13:49:20;;;;;;;0.10;0.10;;;18.40;99.90;;;;;;4963649;28;20192;-79
2023/10/12 13:51:48;;;;;;;0.10;0.10;;;18.40;99.90;;;;;;4960088;28;20700;-79
2023/10/12 13:54:14;;;;;;;0.10;0.10;;;18.40;99.90;;;;;;4959982;28;20204;-79
2023/10/12 13:56:44;;;;;;;0.10;0.10;;;18.40;99.90;;;;;;4960078;28;20188;-79
2023/10/12 13:59:09;;;;;;;0.10;0.10;;;18.40;99.90;;;;;;4962227;28;20542;-78
2023/10/12 14:01:36;;;;;;;0.10;0.10;;;18.30;99.90;;;;;;4962175;28;20196;-79
2023/10/12 14:04:21;;;;;;;0.10;0.10;;;18.20;99.90;;;;;;4960255;28;20216;-79
2023/10/12 14:06:47;;;;;;;0.10;0.10;;;18.20;99.90;;;;;;4960446;28;20193;-79
2023/10/12 14:09:15;;;;;;;0.10;0.10;;;18.20;99.90;;;;;;4958470;28;20634;-83
2023/10/12 14:11:40;;;;;;;0.10;0.10;;;18.10;99.90;;;;;;4958721;28;20219;-81
2023/10/12 14:14:09;;;;;;;0.10;0.10;;;18.10;99.90;;;;;;4952853;28;20255;-82
2023/10/12 14:16:35;;;;;;;0.10;0.10;;;18.00;99.90;;;;;;4957937;28;20199;-82
2023/10/12 14:19:02;;;;;;;0.10;0.10;;;18.00;99.90;;;;;;4958440;28;20199;-80
2023/10/12 14:21:29;;;;;;;0.10;0.10;;;17.90;99.90;;;;;;4961994;28;20188;-80
2023/10/12 14:24:02;;;;;;;0.10;0.10;;;18.00;99.90;;;;;;4959922;28;20319;-80
2023/10/12 14:26:28;;;;;;;0.10;0.10;;;17.90;99.90;;;;;;4963218;28;20582;-83
2023/10/12 14:28:55;;;;;;;0.10;0.10;;;17.80;99.90;;;;;;4958103;28;20446;-81
2023/10/12 14:31:21;;;;;;;0.10;0.10;;;17.80;99.90;;;;;;4962845;28;20254;-81
2023/10/12 14:33:47;;;;;;;0.10;0.10;;;17.80;99.90;;;;;;4976813;28;20185;-81
2023/10/12 14:36:12;;;;;;;0.10;0.10;;;17.80;99.90;;;;;;4962984;28;20688;-81
2023/10/12 14:38:40;;;;;;;0.10;0.10;;;17.80;99.90;;;;;;4961211;28;20189;-81
2023/10/12 14:41:05;;;;;;;0.10;0.10;;;17.80;99.90;;;;;;4959694;28;20566;-80
2023/10/12 14:43:32;;;;;;;0.10;0.10;;;17.80;99.90;;;;;;4959868;28;20226;-80
2023/10/12 14:45:58;;;;;;;0.10;0.10;;;17.80;99.90;;;;;;4962117;28;20214;-80
2023/10/12 14:48:25;;;;;;;0.10;0.10;;;17.80;99.90;;;;;;4958761;28;20189;-80
2023/10/12 14:50:59;;;;;;;0.10;0.10;;;17.80;99.90;;;;;;4957689;28;22000;-80
2023/10/12 14:53:28;;;;;;;0.10;0.10;;;17.90;99.90;;;;;;4961056;28;20178;-79
2023/10/12 14:55:55;;;;;;;0.10;0.10;;;18.00;99.90;;;;;;4958830;28;20270;-80
2023/10/12 14:58:26;;;;;;;0.10;0.10;;;18.10;99.90;;;;;;4961962;28;20196;-81
2023/10/12 15:00:53;;;;;;;0.10;0.10;;;18.10;99.90;;;;;;4957070;28;20332;-81
2023/10/12 15:03:22;;;;;;;0.00;0.00;;;18.10;99.90;;;;;;4960747;28;20196;-81
2023/10/12 15:05:53;;;;;;;0.10;0.10;;;18.20;99.90;;;;;;4958441;28;20201;-79
2023/10/12 15:08:25;;;;;;;0.10;0.10;;;18.10;99.90;;;;;;4974665;28;20177;-82
2023/10/12 15:10:51;;;;;;;0.10;0.10;;;18.10;99.90;;;;;;4958090;28;20192;-81
2023/10/12 15:13:17;;;;;;;0.10;0.10;;;18.10;99.90;;;;;;4961706;28;20270;-80
2023/10/12 15:15:47;;;;;;;0.10;0.10;;;18.10;99.90;;;;;;4957683;28;20231;-81